Aérodrome :
LOGIN :

S'inscrire | Disclaimer

   EN    FR    IT 

 










Légende :    VFR   VFR Marginal   IFR   IFR Intensif   IFR Très Intensif
Visi : 
Plafond : 
>= 8 km
>= 3000ft
5 à 8 km
1000 à 3000 ft
1500m à 5 km
500 à 1000 ft
800 à 1500m
200 à 500 ft
< 800m
< 200 ft
Symboles :   Orages  Brouillard  Fortes neiges  Fortes précipitations  Vent > 20 kt
SIGMETs :   Divers  Orages  Givrage  Turbulence  Onde Orograph.  Cendres Volcan.






- Altitude de l'aérodrome : 1197 ft
- Code IATA : SPM


ETAD - Spangdahlem Ab

DERNIER METAR :
  • 280556Z AUTO 26005KT 9999 SCT033 08/05 A3016 RMK AO2 SLP203 T00770045 10080 20051 53003 $

METARs EXPIRÉS :
  • 280541Z AUTO 27006KT 9999 SCT035 BKN045 07/04 A3016 RMK AO2 SLP204 $
  • 280456Z AUTO 28004KT 9999 CLR 06/04 A3016 RMK AO2 SLP203 T00610036 $
  • 280356Z AUTO 27004KT 9999 CLR 05/03 A3015 RMK AO2 SLP201 T00510031 $

TAF TAF ETAD
Valide du 28 à 06h jusqu'au 29 à 12h UTC


280600Z 2806/2912 27006KT 9999 SCT035 QNH3014INS
BECMG 2809/2810 31010G15KT 9999 FEW040 QNH3006INS
TEMPO 2812/2815 33015G20KT 8000 -DZ
BECMG 2818/2819 35009KT 9999 FEW070 QNH2998INS
BECMG 2902/2903 VRB06KT 6000 BR BKN015 QNH2992INS TX16/2814Z TN06/2904Z



MET'MAP, la Météo Aéronautique d'un coup d'oeil ! - Copyright ORBIFLY Décembre 2007 - Disclaimer

ORBIFLY MET'MAP TEAM :

Programmation & Développement : Alexandra Zaïnal
Sur une idée originale de : Baudouin d'Aumeries
Soutien technique & logistique : Manuel Goepfert
Assistance : Marc-Olivier Méhu

Contact : metmap@orbifly.com




SOURCES & CREDITS :

   NOAA